Terminal Aerodrome Forecast
Issued by NWS Sterling, VA

Current Version | Previous Version | Text Only | Print | Product List | Glossary Off
Versions: 1 2 3 4 5 6 7 8 9 10 11 12 13 14 15 16 17 18 19 20 21 22 23 24 25 26 27 28 29 30 31 32 33

000
FTUS41 KLWX 182000 AAA
TAFIAD
TAF AMD
KIAD 182059Z 1821/1924 31012KT P6SM BKN040
     FM182300 31007KT P6SM BKN100
     FM190900 30006KT P6SM SCT045
     FM191500 31010KT P6SM SCT035
     FM192100 31008KT P6SM SCT250=

USA.gov is the U.S. government's official web portal to all federal, state and local government web resources and services.